Dallas, Texas
Traffic Map
Current Weather Conditions
Dallas, Texas
Clear
Clear
84°
Feels Like: 84°
Wind Chill: 84° Ceiling: Unl
Heat Index: 84° Visibility: 10mi
Dew Point: 48° Wind: 7mph
Humidity: 28% Direction: 200° (SSW)
Pressure: 29.64in Gusts: 0mph
Raw Report DataKDAL 260053Z 20006KT 10SM CLR 29/09 A2964 RMK AO2 SLP031 T02890089
Traffic Incident Summary
Active as of:
Severity:
Category:
InformationThere was an issue retrieving the traffic information for this location. Please try a different location or try again shortly.
Advertisements
Track Severe Weather on mobile